Time;durP1;ratioP1;P1;durP2;ratioP2;P2;SDS_P1;SDS_P2;PMS_P1;PMS_P2;Temp;Humidity;BMP_temperature;BMP_pressure;BME280_temperature;BME280_humidity;BME280_pressure;Samples;Min_cycle;Max_cycle;Signal;HPM_P1;HPM_P2
2023/12/30 00:00:26;;;;;;;3.35;0.60;;;;;;;;;;5032414;28;20064;-91
2023/12/30 00:02:51;;;;;;;2.55;1.00;;;;;;;;;;5033564;28;20037;-91
2023/12/30 00:05:16;;;;;;;6.53;0.85;;;;;;;;;;5033940;28;20128;-89
2023/12/30 00:07:42;;;;;;;4.10;0.95;;;;;;;;;;5043379;28;20013;-89
2023/12/30 00:10:08;;;;;;;3.38;0.80;;;;;;;;;;5033112;28;20112;-92
2023/12/30 00:12:33;;;;;;;4.57;0.98;;;;;;;;;;5031600;28;20026;-90
2023/12/30 00:14:59;;;;;;;4.07;0.60;;;;;;;;;;5031042;28;20036;-90
2023/12/30 00:17:24;;;;;;;9.07;1.05;;;;;;;;;;5031490;28;20466;-90
2023/12/30 00:19:49;;;;;;;3.72;0.57;;;;;;;;;;5041982;28;20048;-90
2023/12/30 00:22:15;;;;;;;4.30;0.77;;;;;;;;;;5033207;28;20017;-90
2023/12/30 00:24:41;;;;;;;4.18;0.68;;;;;;;;;;5031717;28;20044;-90
2023/12/30 00:27:06;;;;;;;2.22;0.65;;;;;;;;;;5032423;28;20083;-90
2023/12/30 00:29:31;;;;;;;2.80;0.60;;;;;;;;;;5033023;28;20343;-90
2023/12/30 00:31:56;;;;;;;1.92;0.60;;;;;;;;;;5031324;28;20030;-90
2023/12/30 00:34:21;;;;;;;5.05;0.70;;;;;;;;;;5040754;28;20060;-90
2023/12/30 00:36:47;;;;;;;2.22;0.77;;;;;;;;;;5030461;28;20083;-90
2023/12/30 00:39:12;;;;;;;2.92;0.50;;;;;;;;;;5030246;28;20017;-90
2023/12/30 00:41:37;;;;;;;3.70;0.90;;;;;;;;;;5030601;28;20108;-91
2023/12/30 00:44:03;;;;;;;6.60;0.85;;;;;;;;;;5031588;28;20152;-90
2023/12/30 00:46:28;;;;;;;7.72;0.75;;;;;;;;;;5030857;28;20150;-91
2023/12/30 00:48:53;;;;;;;2.22;0.57;;;;;;;;;;5037362;28;20060;-91
2023/12/30 00:51:19;;;;;;;1.55;0.45;;;;;;;;;;5030869;28;20021;-90
2023/12/30 00:53:44;;;;;;;8.00;0.50;;;;;;;;;;5031837;28;20091;-91
2023/12/30 00:56:10;;;;;;;4.90;1.10;;;;;;;;;;5031087;28;20496;-90
2023/12/30 00:58:35;;;;;;;1.38;0.50;;;;;;;;;;5030530;28;20059;-89
2023/12/30 01:01:00;;;;;;;4.05;0.68;;;;;;;;;;5031021;28;20036;-91
2023/12/30 01:03:25;;;;;;;4.05;0.63;;;;;;;;;;5031000;28;20017;-90
2023/12/30 01:05:52;;;;;;;4.80;0.65;;;;;;;;;;5030050;28;20090;-90
2023/12/30 01:08:17;;;;;;;2.72;0.57;;;;;;;;;;5030895;28;20022;-90
2023/12/30 01:10:43;;;;;;;3.90;0.70;;;;;;;;;;5030732;28;20041;-90
2023/12/30 01:13:08;;;;;;;3.78;0.85;;;;;;;;;;5031155;28;20033;-90
2023/12/30 01:15:34;;;;;;;5.40;0.63;;;;;;;;;;5032554;28;20025;-90
2023/12/30 01:18:00;;;;;;;6.85;0.73;;;;;;;;;;5039443;28;20103;-90
2023/12/30 01:20:25;;;;;;;4.90;0.50;;;;;;;;;;5030356;28;20052;-91
2023/12/30 01:22:50;;;;;;;2.25;0.57;;;;;;;;;;5030639;28;20044;-90
2023/12/30 01:25:15;;;;;;;5.22;0.70;;;;;;;;;;5030326;28;20017;-89
2023/12/30 01:27:41;;;;;;;3.92;0.68;;;;;;;;;;5031028;28;20469;-90
2023/12/30 01:30:06;;;;;;;2.05;0.50;;;;;;;;;;5038666;28;20021;-91
2023/12/30 01:32:31;;;;;;;1.95;0.57;;;;;;;;;;5034938;28;20463;-90
2023/12/30 01:34:57;;;;;;;1.65;0.40;;;;;;;;;;5029604;28;20032;-89
2023/12/30 01:37:22;;;;;;;2.90;0.88;;;;;;;;;;5029914;28;20457;-90
2023/12/30 01:39:47;;;;;;;4.28;0.70;;;;;;;;;;5029668;28;20045;-90
2023/12/30 01:42:12;;;;;;;5.60;0.82;;;;;;;;;;5030062;28;20033;-90
2023/12/30 01:44:38;;;;;;;2.05;0.40;;;;;;;;;;5039816;28;20030;-90
2023/12/30 01:47:04;;;;;;;2.13;0.60;;;;;;;;;;5030574;28;20116;-90
2023/12/30 01:49:29;;;;;;;2.00;0.70;;;;;;;;;;5030089;28;20057;-92
2023/12/30 01:51:54;;;;;;;3.08;0.70;;;;;;;;;;5031298;28;20028;-91
2023/12/30 01:54:20;;;;;;;2.72;0.60;;;;;;;;;;5030455;28;20386;-90
2023/12/30 01:56:47;;;;;;;2.00;0.50;;;;;;;;;;5029349;28;20066;-90
2023/12/30 01:59:14;;;;;;;0.90;0.50;;;;;;;;;;5039082;28;20017;-90
2023/12/30 02:01:40;;;;;;;1.58;0.57;;;;;;;;;;5033846;28;20220;-90
2023/12/30 02:04:05;;;;;;;2.08;0.60;;;;;;;;;;5026009;28;20168;-90
2023/12/30 02:06:30;;;;;;;5.35;0.80;;;;;;;;;;5024404;28;20120;-90
2023/12/30 02:08:56;;;;;;;6.63;1.27;;;;;;;;;;5030204;28;20486;-89
2023/12/30 02:11:21;;;;;;;3.72;0.60;;;;;;;;;;5029722;28;20467;-90
2023/12/30 02:13:46;;;;;;;6.10;1.17;;;;;;;;;;5030240;28;20013;-90
2023/12/30 02:16:11;;;;;;;2.70;0.52;;;;;;;;;;5029732;28;20021;-90
2023/12/30 02:18:37;;;;;;;5.82;1.05;;;;;;;;;;5031259;28;20021;-89
2023/12/30 02:21:02;;;;;;;5.45;0.77;;;;;;;;;;5029494;28;20528;-90
2023/12/30 02:23:28;;;;;;;2.33;0.52;;;;;;;;;;5020183;28;20498;-90
2023/12/30 02:25:53;;;;;;;3.42;0.70;;;;;;;;;;5030565;28;20384;-89
2023/12/30 02:28:18;;;;;;;2.78;0.60;;;;;;;;;;5029312;28;20112;-90
2023/12/30 02:30:43;;;;;;;3.75;0.60;;;;;;;;;;5029664;28;20076;-90
2023/12/30 02:33:08;;;;;;;2.20;0.40;;;;;;;;;;5029974;28;20044;-90
2023/12/30 02:35:34;;;;;;;5.60;1.02;;;;;;;;;;5029564;28;20036;-90
2023/12/30 02:37:59;;;;;;;3.92;0.98;;;;;;;;;;5029891;28;20017;-91
2023/12/30 02:40:24;;;;;;;3.75;0.73;;;;;;;;;;5032309;28;20470;-90
2023/12/30 02:42:49;;;;;;;3.10;0.70;;;;;;;;;;5030316;28;20029;-90
2023/12/30 02:45:15;;;;;;;2.28;0.75;;;;;;;;;;5028700;28;20025;-91
2023/12/30 02:47:40;;;;;;;2.00;0.50;;;;;;;;;;5029730;28;20102;-90
2023/12/30 02:50:06;;;;;;;3.92;0.63;;;;;;;;;;5029536;28;20166;-90
2023/12/30 02:52:31;;;;;;;4.00;0.77;;;;;;;;;;5034023;28;20040;-91
2023/12/30 02:54:56;;;;;;;3.63;0.63;;;;;;;;;;5029232;28;20029;-90
2023/12/30 02:57:23;;;;;;;4.65;0.68;;;;;;;;;;5029631;28;20028;-89
2023/12/30 02:59:48;;;;;;;3.60;0.52;;;;;;;;;;5029813;28;20035;-90
2023/12/30 03:02:14;;;;;;;3.58;0.73;;;;;;;;;;5029690;28;20128;-89
2023/12/30 03:04:39;;;;;;;4.63;1.05;;;;;;;;;;5034830;28;20083;-90
2023/12/30 03:07:04;;;;;;;5.53;0.88;;;;;;;;;;5032868;28;20034;-90
2023/12/30 03:09:29;;;;;;;5.57;0.85;;;;;;;;;;5033730;28;20020;-90
2023/12/30 03:11:55;;;;;;;5.82;0.70;;;;;;;;;;5032660;28;20025;-90
2023/12/30 03:14:20;;;;;;;5.70;0.90;;;;;;;;;;5033310;28;20021;-91
2023/12/30 03:16:45;;;;;;;2.88;0.50;;;;;;;;;;5034999;28;20035;-90
2023/12/30 03:19:10;;;;;;;2.85;0.60;;;;;;;;;;5033478;28;20037;-91
2023/12/30 03:21:36;;;;;;;2.78;0.90;;;;;;;;;;5032592;28;20060;-90
2023/12/30 03:24:01;;;;;;;5.13;0.73;;;;;;;;;;5033015;28;20014;-90
2023/12/30 03:26:26;;;;;;;4.65;0.85;;;;;;;;;;5032414;28;20063;-91
2023/12/30 03:28:51;;;;;;;3.40;0.73;;;;;;;;;;5032855;28;20029;-90
2023/12/30 03:31:20;;;;;;;4.50;0.57;;;;;;;;;;5034956;28;20021;-90
2023/12/30 03:33:46;;;;;;;4.45;0.68;;;;;;;;;;5034365;28;20048;-90
2023/12/30 03:36:11;;;;;;;2.78;0.75;;;;;;;;;;5027528;28;20014;-90
2023/12/30 03:38:36;;;;;;;2.13;0.52;;;;;;;;;;5034383;28;20074;-90
2023/12/30 03:41:01;;;;;;;2.72;0.68;;;;;;;;;;5035955;28;20116;-91
2023/12/30 03:43:27;;;;;;;3.28;0.60;;;;;;;;;;5033724;28;20041;-90
2023/12/30 03:45:52;;;;;;;3.85;0.70;;;;;;;;;;5032655;28;20080;-93
2023/12/30 03:48:17;;;;;;;4.13;0.75;;;;;;;;;;5032473;28;20463;-90
2023/12/30 03:50:42;;;;;;;4.80;0.57;;;;;;;;;;5031449;28;20485;-91
2023/12/30 03:53:07;;;;;;;2.35;0.95;;;;;;;;;;5033592;28;20458;-90
2023/12/30 03:55:33;;;;;;;5.28;0.50;;;;;;;;;;5032143;28;20470;-90
2023/12/30 03:57:58;;;;;;;5.18;0.65;;;;;;;;;;5031960;28;20104;-90
2023/12/30 04:00:23;;;;;;;3.83;0.95;;;;;;;;;;5042432;28;20013;-91
2023/12/30 04:02:49;;;;;;;4.70;0.60;;;;;;;;;;5031954;28;20112;-89
2023/12/30 04:05:14;;;;;;;4.93;0.60;;;;;;;;;;5030909;28;20736;-90
2023/12/30 04:07:40;;;;;;;3.53;0.80;;;;;;;;;;5031969;28;20033;-91
2023/12/30 04:10:07;;;;;;;1.77;0.40;;;;;;;;;;5031718;28;20018;-90
2023/12/30 04:12:33;;;;;;;3.53;0.63;;;;;;;;;;5031760;28;20481;-89
2023/12/30 04:14:58;;;;;;;3.83;0.60;;;;;;;;;;5031437;28;20022;-90
2023/12/30 04:17:24;;;;;;;2.70;0.50;;;;;;;;;;5036321;28;20522;-90
2023/12/30 04:19:49;;;;;;;2.05;0.43;;;;;;;;;;5031553;28;20017;-89
2023/12/30 04:22:14;;;;;;;2.90;0.80;;;;;;;;;;5031692;28;20051;-90
2023/12/30 04:24:39;;;;;;;3.95;1.00;;;;;;;;;;5031629;28;20486;-91
2023/12/30 04:27:05;;;;;;;4.10;0.60;;;;;;;;;;5031125;28;20164;-90
2023/12/30 04:29:30;;;;;;;7.47;1.02;;;;;;;;;;5038651;28;20028;-90
2023/12/30 04:31:55;;;;;;;6.75;1.08;;;;;;;;;;5031834;28;20018;-90
2023/12/30 04:34:20;;;;;;;3.22;0.55;;;;;;;;;;5031958;28;20049;-90
2023/12/30 04:36:46;;;;;;;5.15;0.70;;;;;;;;;;5031136;28;20021;-90
2023/12/30 04:39:11;;;;;;;3.22;0.63;;;;;;;;;;5031279;28;20041;-89
2023/12/30 04:41:36;;;;;;;5.70;0.95;;;;;;;;;;5031126;28;20495;-90
2023/12/30 04:44:01;;;;;;;1.50;0.47;;;;;;;;;;5034423;28;20044;-90
2023/12/30 04:46:27;;;;;;;1.27;0.47;;;;;;;;;;5032232;28;20025;-91
2023/12/30 04:48:54;;;;;;;4.25;0.38;;;;;;;;;;5047967;28;20075;-90
2023/12/30 04:51:19;;;;;;;1.05;0.40;;;;;;;;;;5031287;28;20025;-90
2023/12/30 04:53:44;;;;;;;2.63;0.50;;;;;;;;;;5031621;28;20470;-90
2023/12/30 04:56:16;;;;;;;1.88;0.52;;;;;;;;;;5030475;28;20037;-91
2023/12/30 04:58:41;;;;;;;2.80;0.80;;;;;;;;;;5043684;28;20006;-91
2023/12/30 05:01:08;;;;;;;1.83;0.43;;;;;;;;;;5031174;28;20095;-91
2023/12/30 05:03:33;;;;;;;2.45;0.50;;;;;;;;;;5030850;28;20013;-90
2023/12/30 05:05:58;;;;;;;1.83;0.70;;;;;;;;;;5030852;28;20033;-90
2023/12/30 05:08:24;;;;;;;3.95;0.90;;;;;;;;;;5030903;28;20578;-90
2023/12/30 05:10:49;;;;;;;1.85;0.50;;;;;;;;;;5033781;28;20037;-90
2023/12/30 05:13:14;;;;;;;3.17;0.65;;;;;;;;;;5033913;28;20490;-90
2023/12/30 05:15:39;;;;;;;2.30;0.50;;;;;;;;;;5030673;28;20373;-91
2023/12/30 05:18:05;;;;;;;4.45;0.50;;;;;;;;;;5047713;28;20382;-92
2023/12/30 05:20:30;;;;;;;3.00;0.63;;;;;;;;;;5043058;28;20033;-90
2023/12/30 05:23:00;;;;;;;4.35;0.50;;;;;;;;;;5023329;28;20396;-91
2023/12/30 05:25:25;;;;;;;4.10;0.65;;;;;;;;;;5024354;28;20403;-90
2023/12/30 05:27:50;;;;;;;1.83;0.63;;;;;;;;;;5029535;28;20024;-90
2023/12/30 05:30:15;;;;;;;2.47;0.60;;;;;;;;;;5030049;28;20100;-90
2023/12/30 05:32:41;;;;;;;2.20;0.32;;;;;;;;;;5030064;28;20053;-90
2023/12/30 05:35:06;;;;;;;1.80;0.50;;;;;;;;;;5031224;28;20409;-90
2023/12/30 05:37:31;;;;;;;1.15;0.50;;;;;;;;;;5034894;28;20047;-90
2023/12/30 05:39:57;;;;;;;5.55;0.68;;;;;;;;;;5031678;28;20068;-90
2023/12/30 05:42:22;;;;;;;3.63;0.90;;;;;;;;;;5030542;28;20033;-91
2023/12/30 05:44:47;;;;;;;2.50;0.70;;;;;;;;;;5030029;28;20101;-90
2023/12/30 05:47:12;;;;;;;3.55;0.82;;;;;;;;;;5030504;28;20061;-90
2023/12/30 05:49:40;;;;;;;2.33;0.77;;;;;;;;;;5030411;28;20041;-91
2023/12/30 05:52:05;;;;;;;4.10;0.70;;;;;;;;;;5032421;28;20096;-90
2023/12/30 05:54:31;;;;;;;7.40;0.88;;;;;;;;;;5030967;28;20099;-92
2023/12/30 05:56:56;;;;;;;1.63;0.40;;;;;;;;;;5030122;28;20029;-90
2023/12/30 05:59:21;;;;;;;1.50;0.32;;;;;;;;;;5030304;28;20017;-90
2023/12/30 06:01:46;;;;;;;3.85;0.50;;;;;;;;;;5029922;28;20017;-90
2023/12/30 06:04:15;;;;;;;3.75;0.50;;;;;;;;;;5030424;28;20052;-90
2023/12/30 06:06:40;;;;;;;0.90;0.38;;;;;;;;;;5029990;28;20033;-90
2023/12/30 06:09:06;;;;;;;3.08;0.68;;;;;;;;;;5030333;28;20486;-92
2023/12/30 06:11:32;;;;;;;1.92;0.60;;;;;;;;;;5025947;28;20473;-90
2023/12/30 06:13:57;;;;;;;2.70;0.60;;;;;;;;;;5030433;28;20037;-91
2023/12/30 06:16:22;;;;;;;2.42;0.70;;;;;;;;;;5026759;28;20018;-91
2023/12/30 06:18:47;;;;;;;2.92;0.60;;;;;;;;;;5025646;28;20097;-90
2023/12/30 06:21:13;;;;;;;2.50;0.57;;;;;;;;;;5017706;28;20025;-90
2023/12/30 06:23:38;;;;;;;2.38;0.68;;;;;;;;;;5019423;28;20018;-90
2023/12/30 06:26:03;;;;;;;4.50;0.73;;;;;;;;;;5016608;28;20034;-93
2023/12/30 06:28:29;;;;;;;2.50;0.60;;;;;;;;;;5020903;28;20553;-91
2023/12/30 06:30:54;;;;;;;2.78;0.80;;;;;;;;;;5024561;28;20113;-90
2023/12/30 06:33:20;;;;;;;4.22;0.52;;;;;;;;;;5030800;28;20453;-90
2023/12/30 06:35:45;;;;;;;5.90;0.85;;;;;;;;;;5028094;28;20029;-91
2023/12/30 06:38:10;;;;;;;3.55;1.20;;;;;;;;;;5032915;28;20028;-90
2023/12/30 06:40:36;;;;;;;4.80;0.60;;;;;;;;;;5034144;28;20075;-90
2023/12/30 06:43:02;;;;;;;2.95;0.60;;;;;;;;;;5031720;28;20033;-89
2023/12/30 06:45:27;;;;;;;1.52;0.60;;;;;;;;;;5035057;28;20052;-90
2023/12/30 06:47:52;;;;;;;2.08;0.60;;;;;;;;;;5036985;28;20166;-91
2023/12/30 06:50:20;;;;;;;3.55;0.68;;;;;;;;;;5036694;28;20459;-90
2023/12/30 06:52:45;;;;;;;2.47;0.63;;;;;;;;;;5036144;28;20025;-90
2023/12/30 06:55:12;;;;;;;12.48;1.77;;;;;;;;;;5026270;28;20060;-91
2023/12/30 06:57:37;;;;;;;1.52;0.63;;;;;;;;;;5032090;28;20022;-90
2023/12/30 07:00:03;;;;;;;2.20;0.60;;;;;;;;;;5033901;28;20453;-90
2023/12/30 07:02:29;;;;;;;1.48;0.50;;;;;;;;;;5034604;28;20482;-90
2023/12/30 07:04:54;;;;;;;2.88;0.88;;;;;;;;;;5031292;28;20018;-90
2023/12/30 07:07:19;;;;;;;5.63;0.70;;;;;;;;;;5032162;28;20045;-92
2023/12/30 07:09:44;;;;;;;3.15;0.57;;;;;;;;;;5029290;28;20025;-91
2023/12/30 07:12:12;;;;;;;1.17;0.43;;;;;;;;;;5040217;28;20107;-92
2023/12/30 07:14:38;;;;;;;4.93;0.73;;;;;;;;;;5036024;28;20021;-91
2023/12/30 07:17:03;;;;;;;3.58;0.80;;;;;;;;;;5037052;28;20033;-92
2023/12/30 07:19:29;;;;;;;4.35;0.60;;;;;;;;;;5046670;28;20017;-91
2023/12/30 07:21:54;;;;;;;3.67;0.80;;;;;;;;;;5038635;28;20063;-91
2023/12/30 07:24:19;;;;;;;4.25;1.10;;;;;;;;;;5033455;28;20021;-91
2023/12/30 07:26:44;;;;;;;2.80;0.65;;;;;;;;;;5031408;28;20044;-91
2023/12/30 07:29:11;;;;;;;2.80;0.50;;;;;;;;;;5032170;28;20025;-92
2023/12/30 07:31:36;;;;;;;2.08;0.70;;;;;;;;;;5034660;28;20079;-92
2023/12/30 07:34:03;;;;;;;2.15;0.70;;;;;;;;;;5036353;28;20029;-90
2023/12/30 07:36:29;;;;;;;2.70;0.60;;;;;;;;;;5030057;28;20021;-88
2023/12/30 07:38:54;;;;;;;3.25;0.65;;;;;;;;;;5032521;28;20033;-90
2023/12/30 07:41:19;;;;;;;2.70;0.63;;;;;;;;;;5031813;28;20289;-90
2023/12/30 07:43:44;;;;;;;4.90;1.00;;;;;;;;;;5040550;28;20025;-91
2023/12/30 07:46:10;;;;;;;2.58;0.82;;;;;;;;;;5031272;28;20095;-89
2023/12/30 07:48:35;;;;;;;4.82;0.55;;;;;;;;;;5032667;28;20022;-91
2023/12/30 07:51:00;;;;;;;2.72;0.77;;;;;;;;;;5030958;28;20033;-90
2023/12/30 07:53:25;;;;;;;4.78;0.90;;;;;;;;;;5036348;28;20017;-90
2023/12/30 07:55:51;;;;;;;5.72;0.80;;;;;;;;;;5032758;28;20079;-90
2023/12/30 07:58:16;;;;;;;3.92;1.33;;;;;;;;;;5030140;28;20017;-91
2023/12/30 08:00:41;;;;;;;3.83;0.80;;;;;;;;;;5031592;28;20017;-90
2023/12/30 08:03:07;;;;;;;4.65;0.63;;;;;;;;;;5031726;28;20466;-92
2023/12/30 08:05:32;;;;;;;3.17;0.77;;;;;;;;;;5031771;28;20604;-91
2023/12/30 08:07:58;;;;;;;1.67;0.65;;;;;;;;;;5030775;28;20040;-91
2023/12/30 08:10:24;;;;;;;4.45;0.80;;;;;;;;;;5026182;28;20021;-90
2023/12/30 08:12:49;;;;;;;3.10;0.70;;;;;;;;;;5021430;28;20032;-89
2023/12/30 08:15:14;;;;;;;6.72;0.95;;;;;;;;;;5026036;28;20386;-91
2023/12/30 08:17:40;;;;;;;5.50;1.13;;;;;;;;;;5026646;28;20036;-90
2023/12/30 08:20:06;;;;;;;3.83;1.05;;;;;;;;;;5027410;28;20025;-89
2023/12/30 08:22:32;;;;;;;2.80;0.75;;;;;;;;;;5033891;28;20531;-90
2023/12/30 08:24:58;;;;;;;3.90;0.90;;;;;;;;;;5030881;28;20017;-89
2023/12/30 08:27:23;;;;;;;3.95;1.10;;;;;;;;;;5034812;28;20107;-92
2023/12/30 08:29:49;;;;;;;6.32;0.90;;;;;;;;;;5026921;28;20057;-94
2023/12/30 08:32:14;;;;;;;5.57;1.00;;;;;;;;;;5031076;28;20037;-93
2023/12/30 08:34:39;;;;;;;5.18;1.27;;;;;;;;;;5029617;28;20025;-86
2023/12/30 08:37:08;;;;;;;8.10;1.45;;;;;;;;;;5030805;28;20474;-89
2023/12/30 08:39:33;;;;;;;5.40;1.65;;;;;;;;;;5031369;28;20110;-87
2023/12/30 08:41:59;;;;;;;5.57;1.13;;;;;;;;;;5024331;28;20061;-86
2023/12/30 08:44:26;;;;;;;4.95;1.17;;;;;;;;;;5018629;28;20018;-90
2023/12/30 08:46:52;;;;;;;4.22;1.10;;;;;;;;;;5019658;28;20544;-94
2023/12/30 08:49:17;;;;;;;3.60;1.05;;;;;;;;;;5036045;28;20025;-92
2023/12/30 08:51:42;;;;;;;8.90;1.08;;;;;;;;;;5020084;28;20483;-93
2023/12/30 08:54:07;;;;;;;4.47;1.00;;;;;;;;;;5039774;28;20017;-88
2023/12/30 08:56:33;;;;;;;3.58;1.10;;;;;;;;;;5030586;28;20591;-90
2023/12/30 08:58:59;;;;;;;6.45;1.05;;;;;;;;;;5027807;28;20048;-89
2023/12/30 09:01:24;;;;;;;7.78;1.35;;;;;;;;;;5023978;28;20022;-94
2023/12/30 09:03:49;;;;;;;5.60;1.23;;;;;;;;;;5031087;28;20032;-96
2023/12/30 09:06:14;;;;;;;4.18;0.95;;;;;;;;;;5026736;28;20417;-93
2023/12/30 09:08:41;;;;;;;6.88;1.27;;;;;;;;;;5029340;28;20545;-85
2023/12/30 09:11:16;;;;;;;7.50;1.40;;;;;;;;;;5029147;28;20096;-87
2023/12/30 09:13:41;;;;;;;5.95;1.52;;;;;;;;;;5029333;28;20020;-85
2023/12/30 09:16:06;;;;;;;3.13;1.35;;;;;;;;;;5031644;28;20378;-89
2023/12/30 09:18:32;;;;;;;5.57;1.52;;;;;;;;;;5031676;28;20013;-85
2023/12/30 09:20:57;;;;;;;8.38;1.80;;;;;;;;;;5029714;28;20025;-91
2023/12/30 09:23:22;;;;;;;7.20;1.77;;;;;;;;;;5027553;28;20037;-93
2023/12/30 09:25:47;;;;;;;5.72;1.40;;;;;;;;;;5028714;28;20367;-87
2023/12/30 09:28:12;;;;;;;8.30;1.67;;;;;;;;;;5026970;28;20418;-87
2023/12/30 09:30:38;;;;;;;6.32;1.65;;;;;;;;;;5019403;28;20057;-86
2023/12/30 09:33:03;;;;;;;5.28;1.52;;;;;;;;;;5028120;28;20029;-90
2023/12/30 09:35:28;;;;;;;4.82;1.55;;;;;;;;;;5026003;28;20025;-89
2023/12/30 09:37:54;;;;;;;5.72;1.60;;;;;;;;;;5027614;28;20481;-87
2023/12/30 09:40:19;;;;;;;3.83;1.45;;;;;;;;;;5024930;28;20029;-92
2023/12/30 09:42:45;;;;;;;8.38;1.52;;;;;;;;;;5027053;28;20022;-85
2023/12/30 09:45:12;;;;;;;9.95;1.60;;;;;;;;;;5028382;28;20106;-88
2023/12/30 09:47:38;;;;;;;6.95;1.40;;;;;;;;;;5030724;28;20056;-92
2023/12/30 09:50:04;;;;;;;7.22;2.13;;;;;;;;;;5031249;28;20022;-91
2023/12/30 09:52:29;;;;;;;3.90;1.70;;;;;;;;;;5044940;28;20024;-85
2023/12/30 09:54:54;;;;;;;7.35;1.30;;;;;;;;;;5029471;28;20067;-95
2023/12/30 09:57:19;;;;;;;8.07;1.60;;;;;;;;;;5019929;28;20026;-85
2023/12/30 09:59:46;;;;;;;5.38;1.83;;;;;;;;;;5028500;28;20036;-86
2023/12/30 10:02:12;;;;;;;10.07;1.95;;;;;;;;;;5025426;28;20043;-85
2023/12/30 10:04:37;;;;;;;6.97;1.98;;;;;;;;;;5029837;28;20017;-95
2023/12/30 10:07:03;;;;;;;5.00;1.50;;;;;;;;;;5031028;28;20378;-92
2023/12/30 10:09:31;;;;;;;8.55;1.55;;;;;;;;;;5013452;28;20061;-92
2023/12/30 10:11:57;;;;;;;6.78;1.63;;;;;;;;;;5031269;28;20039;-85
2023/12/30 10:14:22;;;;;;;6.70;1.65;;;;;;;;;;5035715;28;20580;-92
2023/12/30 10:16:48;;;;;;;8.40;1.63;;;;;;;;;;5032983;28;20053;-85
2023/12/30 10:19:14;;;;;;;7.22;1.77;;;;;;;;;;5037040;28;20027;-93
2023/12/30 10:21:39;;;;;;;5.90;1.77;;;;;;;;;;5035834;28;20022;-96
2023/12/30 10:24:05;;;;;;;7.82;1.60;;;;;;;;;;5032862;28;20474;-95
2023/12/30 10:26:31;;;;;;;6.97;1.65;;;;;;;;;;5031693;28;20037;-87
2023/12/30 10:28:56;;;;;;;8.45;1.63;;;;;;;;;;5032304;28;20463;-89
2023/12/30 10:31:23;;;;;;;10.70;1.60;;;;;;;;;;5038137;28;20029;-93
2023/12/30 10:33:48;;;;;;;9.23;1.90;;;;;;;;;;5035422;28;20044;-96
2023/12/30 10:36:14;;;;;;;4.95;1.70;;;;;;;;;;5033758;28;20739;-96
2023/12/30 10:38:40;;;;;;;6.97;1.52;;;;;;;;;;5029998;28;20018;-93
2023/12/30 10:41:05;;;;;;;8.57;1.42;;;;;;;;;;5036640;28;20041;-89
2023/12/30 10:43:31;;;;;;;7.55;1.52;;;;;;;;;;5038198;28;20025;-88
2023/12/30 10:46:00;;;;;;;2.25;1.27;;;;;;;;;;5033901;28;20033;-93
2023/12/30 10:48:30;;;;;;;3.45;1.27;;;;;;;;;;5012105;28;20026;-92
2023/12/30 10:50:56;;;;;;;11.15;1.63;;;;;;;;;;5028289;28;20028;-94
2023/12/30 10:53:44;;;;;;;8.77;1.67;;;;;;;;;;5029955;28;20022;-96
2023/12/30 10:56:10;;;;;;;6.75;1.30;;;;;;;;;;5028213;28;20091;-94
2023/12/30 10:58:35;;;;;;;6.47;1.50;;;;;;;;;;5029817;28;20017;-92
2023/12/30 11:01:02;;;;;;;5.30;1.20;;;;;;;;;;5032996;28;20033;-89
2023/12/30 11:03:29;;;;;;;5.18;1.30;;;;;;;;;;5032195;28;20056;-95
2023/12/30 11:05:58;;;;;;;7.57;1.45;;;;;;;;;;5029387;28;20029;-95
2023/12/30 11:08:24;;;;;;;3.65;1.20;;;;;;;;;;5026929;28;20021;-91
2023/12/30 11:10:52;;;;;;;3.85;1.27;;;;;;;;;;5033722;28;20021;-89
2023/12/30 11:13:20;;;;;;;9.65;1.98;;;;;;;;;;5032042;28;20056;-96
2023/12/30 11:15:46;;;;;;;4.93;1.42;;;;;;;;;;5044949;28;20029;-86
2023/12/30 11:18:12;;;;;;;7.55;1.42;;;;;;;;;;5033860;28;20030;-95
2023/12/30 11:20:46;;;;;;;6.63;1.73;;;;;;;;;;5031035;28;20022;-93
2023/12/30 11:23:13;;;;;;;6.07;1.25;;;;;;;;;;5032543;28;20030;-96
2023/12/30 11:25:42;;;;;;;3.65;1.30;;;;;;;;;;5032564;28;20025;-86
2023/12/30 11:28:20;;;;;;;7.25;1.45;;;;;;;;;;5033384;28;20217;-91
2023/12/30 11:30:55;;;;;;;10.15;1.35;;;;;;;;;;5041478;28;20052;-90
2023/12/30 11:33:20;;;;;;;4.35;1.30;;;;;;;;;;5031515;28;20101;-95
2023/12/30 11:35:46;;;;;;;5.40;1.80;;;;;;;;;;5028778;28;20025;-89
2023/12/30 11:38:12;;;;;;;6.28;1.30;;;;;;;;;;5027604;28;20033;-94
2023/12/30 11:40:47;;;;;;;6.15;0.95;;;;;;;;;;5032680;28;20033;-85
2023/12/30 11:43:13;;;;;;;7.13;1.23;;;;;;;;;;5031217;28;20367;-89
2023/12/30 11:45:38;;;;;;;4.13;1.10;;;;;;;;;;5029760;28;20113;-86
2023/12/30 11:48:03;;;;;;;4.20;1.30;;;;;;;;;;5033135;28;20029;-90
2023/12/30 11:50:29;;;;;;;3.90;1.05;;;;;;;;;;5025843;28;20417;-86
2023/12/30 11:52:55;;;;;;;9.38;1.50;;;;;;;;;;5028628;28;20083;-91
2023/12/30 11:55:20;;;;;;;3.78;1.17;;;;;;;;;;5025989;28;20052;-91
2023/12/30 11:57:46;;;;;;;6.18;1.55;;;;;;;;;;5022847;28;20446;-89
2023/12/30 12:00:13;;;;;;;3.03;1.05;;;;;;;;;;5032382;28;20021;-89
2023/12/30 12:02:38;;;;;;;7.10;1.13;;;;;;;;;;5031507;28;20025;-85
2023/12/30 12:05:04;;;;;;;5.10;1.40;;;;;;;;;;5029998;28;20509;-85
2023/12/30 12:07:30;;;;;;;4.80;1.23;;;;;;;;;;5029910;28;20264;-85
2023/12/30 12:09:56;;;;;;;6.22;1.13;;;;;;;;;;5025354;28;20075;-85
2023/12/30 12:12:22;;;;;;;4.88;0.85;;;;;;;;;;5028929;28;20029;-89
2023/12/30 12:14:48;;;;;;;4.93;0.90;;;;;;;;;;5027600;28;20029;-85
2023/12/30 12:17:13;;;;;;;3.97;0.93;;;;;;;;;;5030391;28;20470;-84
2023/12/30 12:19:38;;;;;;;2.50;1.13;;;;;;;;;;5030810;28;21420;-88
2023/12/30 12:22:04;;;;;;;4.55;1.02;;;;;;;;;;5029772;28;20029;-96
2023/12/30 12:24:30;;;;;;;7.47;1.50;;;;;;;;;;5026918;28;20025;-96
2023/12/30 12:26:55;;;;;;;5.10;1.20;;;;;;;;;;5030739;28;20124;-93
2023/12/30 12:29:21;;;;;;;2.13;0.90;;;;;;;;;;5029343;28;20101;-96
2023/12/30 12:31:46;;;;;;;2.05;0.93;;;;;;;;;;5037914;28;20017;-96
2023/12/30 12:34:21;;;;;;;4.72;0.82;;;;;;;;;;5030839;28;20531;-96
2023/12/30 12:36:47;;;;;;;4.63;1.15;;;;;;;;;;5027655;28;20029;-95
2023/12/30 12:39:12;;;;;;;4.90;0.98;;;;;;;;;;5034269;28;20021;-96
2023/12/30 12:41:38;;;;;;;6.95;1.20;;;;;;;;;;5031185;28;20053;-95
2023/12/30 12:44:04;;;;;;;6.75;0.93;;;;;;;;;;5031519;28;20032;-96
2023/12/30 12:46:29;;;;;;;3.45;0.90;;;;;;;;;;5031483;28;20036;-94
2023/12/30 12:48:55;;;;;;;5.63;1.02;;;;;;;;;;5032054;28;20033;-95
2023/12/30 12:51:21;;;;;;;6.78;1.00;;;;;;;;;;5029966;28;20017;-95
2023/12/30 12:53:46;;;;;;;2.78;0.90;;;;;;;;;;5031149;28;20112;-96
2023/12/30 12:56:12;;;;;;;4.78;1.00;;;;;;;;;;5027352;28;20108;-95
2023/12/30 12:58:37;;;;;;;3.85;1.10;;;;;;;;;;5021504;28;20021;-92
2023/12/30 13:01:03;;;;;;;3.20;0.65;;;;;;;;;;5020335;28;20025;-95
2023/12/30 13:03:28;;;;;;;4.03;1.10;;;;;;;;;;5028829;28;20036;-93
2023/12/30 13:05:54;;;;;;;4.10;0.90;;;;;;;;;;5025111;28;20068;-96
2023/12/30 13:08:20;;;;;;;3.40;1.02;;;;;;;;;;5028662;28;20030;-94
2023/12/30 13:10:48;;;;;;;4.03;0.80;;;;;;;;;;5030082;28;20025;-91
2023/12/30 13:13:13;;;;;;;6.70;0.90;;;;;;;;;;5026448;28;20124;-86
2023/12/30 13:15:38;;;;;;;2.20;0.80;;;;;;;;;;5030856;28;20096;-85
2023/12/30 13:18:07;;;;;;;3.45;0.90;;;;;;;;;;5024889;28;20029;-86
2023/12/30 13:20:33;;;;;;;6.38;1.10;;;;;;;;;;5024931;28;20021;-87
2023/12/30 13:23:02;;;;;;;5.22;1.38;;;;;;;;;;5028029;28;20029;-87
2023/12/30 13:25:28;;;;;;;3.42;0.80;;;;;;;;;;5019954;28;20026;-85
2023/12/30 13:27:53;;;;;;;4.25;0.70;;;;;;;;;;5028530;28;20102;-86
2023/12/30 13:30:22;;;;;;;3.00;0.77;;;;;;;;;;5021636;28;20022;-85
2023/12/30 13:32:48;;;;;;;6.22;0.90;;;;;;;;;;5021520;28;20036;-86
2023/12/30 13:35:13;;;;;;;4.03;0.95;;;;;;;;;;5026853;28;20390;-87
2023/12/30 13:37:40;;;;;;;2.25;0.70;;;;;;;;;;5024823;28;20058;-90
2023/12/30 13:40:10;;;;;;;4.85;0.70;;;;;;;;;;5028951;28;20048;-87
2023/12/30 13:42:36;;;;;;;4.70;1.00;;;;;;;;;;5027215;28;20057;-89
2023/12/30 13:45:03;;;;;;;2.17;0.70;;;;;;;;;;5028642;28;20504;-92
2023/12/30 13:50:18;;;;;;;6.07;1.40;;;;;;;;;;5027996;28;20021;-94
2023/12/30 13:52:43;;;;;;;2.75;0.93;;;;;;;;;;5024089;28;20075;-87
2023/12/30 13:55:15;;;;;;;2.42;0.60;;;;;;;;;;5027431;28;20029;-87
2023/12/30 13:57:42;;;;;;;6.95;0.63;;;;;;;;;;5034204;28;20444;-87
2023/12/30 14:00:08;;;;;;;3.22;0.68;;;;;;;;;;5028659;28;20029;-85
2023/12/30 14:02:38;;;;;;;3.33;0.73;;;;;;;;;;5030118;28;20029;-89
2023/12/30 14:05:06;;;;;;;2.92;0.95;;;;;;;;;;5026810;28;20488;-89
2023/12/30 14:07:31;;;;;;;2.83;0.73;;;;;;;;;;5028396;28;20525;-92
2023/12/30 14:10:06;;;;;;;2.30;0.70;;;;;;;;;;5025494;28;20021;-88
2023/12/30 14:12:32;;;;;;;4.25;0.80;;;;;;;;;;5028482;28;20036;-88
2023/12/30 14:15:05;;;;;;;4.53;0.77;;;;;;;;;;5029548;28;20025;-90
2023/12/30 14:17:33;;;;;;;1.50;0.60;;;;;;;;;;5029403;28;20478;-89
2023/12/30 14:20:01;;;;;;;4.43;0.80;;;;;;;;;;5028881;28;20060;-91
2023/12/30 14:22:27;;;;;;;4.03;0.98;;;;;;;;;;5029450;28;20018;-89
2023/12/30 14:24:52;;;;;;;3.70;0.75;;;;;;;;;;5026344;28;20117;-95
2023/12/30 14:27:18;;;;;;;5.28;0.88;;;;;;;;;;5022940;28;20509;-94
2023/12/30 14:29:48;;;;;;;3.95;0.93;;;;;;;;;;5035575;28;20370;-88
2023/12/30 14:32:13;;;;;;;4.07;0.90;;;;;;;;;;5022429;28;20135;-85
2023/12/30 14:34:39;;;;;;;2.40;0.70;;;;;;;;;;5028891;28;20100;-86
2023/12/30 14:37:05;;;;;;;2.33;0.65;;;;;;;;;;5029463;28;20033;-85